createdAt,value
2023-04-16T00:01:03.112Z,99887.41
2023-04-16T00:03:33.048Z,99890.41
2023-04-16T00:06:01.337Z,99892.38
2023-04-16T00:08:29.590Z,99887.97
2023-04-16T00:10:57.741Z,99879.19
2023-04-16T00:13:27.462Z,99886.59
2023-04-16T00:15:55.646Z,99885.03
2023-04-16T00:18:23.680Z,99888.59
2023-04-16T00:20:53.557Z,99890.56
2023-04-16T00:23:22.086Z,99886.16
2023-04-16T00:25:50.088Z,99888.31
2023-04-16T00:28:18.424Z,99891.03
2023-04-16T00:30:46.668Z,99890.31
2023-04-16T00:33:14.948Z,99893.19
2023-04-16T00:35:43.028Z,99895.16
2023-04-16T00:38:12.480Z,99899.84
2023-04-16T00:40:42.384Z,99887.34
2023-04-16T00:43:10.637Z,99904.53
2023-04-16T00:45:38.828Z,99895.75
2023-04-16T00:48:07.456Z,99893.06
2023-04-16T00:50:35.781Z,99886.13
2023-04-16T00:53:04.188Z,99890.63
2023-04-16T00:55:33.809Z,99889.94
2023-04-16T00:58:01.923Z,99888.38
2023-04-16T01:00:30.168Z,99884.13
2023-04-16T01:02:58.588Z,99893.06
2023-04-16T01:05:26.764Z,99885.22
2023-04-16T01:07:54.897Z,99887.94
2023-04-16T01:10:23.129Z,99898.88
2023-04-16T01:12:52.537Z,99899.88
2023-04-16T01:15:20.752Z,99902.03
2023-04-16T01:17:49.131Z,99901.16
2023-04-16T01:20:17.223Z,99902.03
2023-04-16T01:22:46.708Z,99897.78
2023-04-16T01:25:16.834Z,99898.91
2023-04-16T01:27:44.902Z,99904.28
2023-04-16T01:30:13.275Z,99898.19
2023-04-16T01:32:41.403Z,99897.34
2023-04-16T01:35:09.650Z,99902.03
2023-04-16T01:37:37.681Z,99910.13
2023-04-16T01:40:08.283Z,99904.03
2023-04-16T01:42:36.347Z,99905.03
2023-04-16T01:45:04.767Z,99897.22
2023-04-16T01:47:33.042Z,99904.47
2023-04-16T01:50:01.751Z,99908.31
2023-04-16T01:52:30.296Z,99903.75
2023-04-16T01:54:58.659Z,99905.75
2023-04-16T01:57:28.108Z,99904.91
2023-04-16T01:59:56.804Z,99903.22
2023-04-16T02:02:28.214Z,99894.38
2023-04-16T02:04:57.496Z,99899.06
2023-04-16T02:07:25.744Z,99901.78
2023-04-16T02:09:53.993Z,99906.47
2023-04-16T02:12:22.112Z,99912.84
2023-04-16T02:14:51.536Z,99916.53
2023-04-16T02:17:19.613Z,99909.47
2023-04-16T02:19:48.369Z,99923.94
2023-04-16T02:22:16.503Z,99916.81
2023-04-16T02:24:44.488Z,99923.19
2023-04-16T02:27:12.612Z,99917.09
2023-04-16T02:29:40.656Z,99919.81
2023-04-16T02:32:10.203Z,99917.41
2023-04-16T02:34:40.300Z,99917.41
2023-04-16T02:37:08.380Z,99915.72
2023-04-16T02:39:36.810Z,99924.78
2023-04-16T02:42:04.984Z,99924.06
2023-04-16T02:44:33.056Z,99917.97
2023-04-16T02:47:01.101Z,99923.34
2023-04-16T02:49:31.049Z,99918.97
2023-04-16T02:51:59.523Z,99913.88
2023-04-16T02:54:27.640Z,99905.06
2023-04-16T02:56:55.628Z,99908.47
2023-04-16T02:59:23.771Z,99909.59
2023-04-16T03:01:52.132Z,99913.16
2023-04-16T03:04:20.364Z,99914.28
2023-04-16T03:06:49.765Z,99919.66
2023-04-16T03:09:18.353Z,99921.50
2023-04-16T03:11:46.398Z,99923.50
2023-04-16T03:14:14.513Z,99920.81
2023-04-16T03:16:42.632Z,99931.72
2023-04-16T03:19:10.940Z,99932.72
2023-04-16T03:21:39.162Z,99935.56
2023-04-16T03:24:08.610Z,99924.91
2023-04-16T03:26:36.747Z,99932.13
2023-04-16T03:29:04.837Z,99944.75
2023-04-16T03:31:33.002Z,99945.75
2023-04-16T03:34:01.148Z,99951.28
2023-04-16T03:36:31.028Z,99964.06
2023-04-16T03:38:59.353Z,99971.28
2023-04-16T03:41:28.812Z,99975.81
2023-04-16T03:43:56.934Z,99986.59
2023-04-16T03:46:25.133Z,99984.16
2023-04-16T03:48:53.288Z,99982.47
2023-04-16T03:51:21.797Z,99980.63
2023-04-16T03:53:49.895Z,99985.16
2023-04-16T03:56:17.968Z,99983.59
2023-04-16T03:58:47.435Z,99986.44
2023-04-16T04:01:15.553Z,99988.28
2023-04-16T04:03:44.071Z,99989.13
2023-04-16T04:06:12.474Z,99991.13
2023-04-16T04:08:40.474Z,99988.56
2023-04-16T04:11:08.531Z,99990.38
2023-04-16T04:13:36.658Z,99984.13
2023-04-16T04:16:07.053Z,99978.91
2023-04-16T04:18:35.150Z,99992.50
2023-04-16T04:21:07.512Z,99981.72
2023-04-16T04:23:35.705Z,99993.50
2023-04-16T04:26:05.657Z,99993.63
2023-04-16T04:28:34.692Z,99998.19
2023-04-16T04:31:03.039Z,99997.31
2023-04-16T04:33:32.836Z,100009.94
2023-04-16T04:36:01.032Z,100010.94
2023-04-16T04:38:30.127Z,100012.00
2023-04-16T04:40:58.424Z,100010.44
2023-04-16T04:43:26.923Z,100016.53
2023-04-16T04:45:55.007Z,100010.31
2023-04-16T04:48:26.746Z,100012.16
2023-04-16T04:50:56.329Z,100014.84
2023-04-16T04:53:24.346Z,100018.53
2023-04-16T04:55:55.624Z,100020.38
2023-04-16T04:58:25.604Z,100015.13
2023-04-16T05:00:53.830Z,100023.34
2023-04-16T05:03:22.793Z,100027.03
2023-04-16T05:05:50.924Z,100030.44
2023-04-16T05:08:20.665Z,100028.72
2023-04-16T05:10:48.741Z,100030.56
2023-04-16T05:13:16.852Z,100028.97
2023-04-16T05:15:45.786Z,100026.19
2023-04-16T05:18:13.847Z,100023.59
2023-04-16T05:20:41.915Z,100019.19
2023-04-16T05:23:10.236Z,100017.50
2023-04-16T05:25:39.655Z,100019.34
2023-04-16T05:28:07.732Z,100023.03
2023-04-16T05:30:35.916Z,100024.72
2023-04-16T05:33:04.068Z,100031.94
2023-04-16T05:35:32.150Z,100039.31
2023-04-16T05:38:00.311Z,100042.28
2023-04-16T05:40:28.374Z,100053.63
2023-04-16T05:42:57.786Z,100046.69
2023-04-16T05:45:27.437Z,100059.16
2023-04-16T05:47:56.264Z,100053.78
2023-04-16T05:50:24.446Z,100058.31
2023-04-16T05:52:52.532Z,100061.84
2023-04-16T05:55:20.828Z,100068.34
2023-04-16T05:57:48.865Z,100069.47
2023-04-16T06:00:18.806Z,100074.59
2023-04-16T06:02:47.227Z,100067.47
2023-04-16T06:05:15.705Z,100068.34
2023-04-16T06:07:43.901Z,100063.94
2023-04-16T06:10:12.331Z,100065.78
2023-04-16T06:12:40.481Z,100072.88
2023-04-16T06:15:09.775Z,100060.38
2023-04-16T06:17:39.509Z,100065.78
2023-04-16T06:20:09.884Z,100067.63
2023-04-16T06:22:38.140Z,100064.06
2023-04-16T06:25:10.301Z,100060.38
2023-04-16T06:27:38.505Z,100059.69
2023-04-16T06:30:12.562Z,100071.16
2023-04-16T06:32:42.148Z,100060.38
2023-04-16T06:35:10.887Z,100056.28
2023-04-16T06:37:39.002Z,100060.38
2023-04-16T06:40:08.106Z,100058.69
2023-04-16T06:42:36.230Z,100052.31
2023-04-16T06:45:04.537Z,100053.31
2023-04-16T06:47:32.727Z,100065.63
2023-04-16T06:50:02.325Z,100056.00
2023-04-16T06:52:30.971Z,100056.72
2023-04-16T06:54:59.791Z,100058.44
2023-04-16T06:57:27.868Z,100056.72
2023-04-16T06:59:56.035Z,100061.00
2023-04-16T07:02:25.362Z,100062.94
2023-04-16T07:04:53.968Z,100066.25
2023-04-16T07:07:23.450Z,100067.22
2023-04-16T07:09:52.098Z,100072.47
2023-04-16T07:12:22.851Z,100071.50
2023-04-16T07:14:51.128Z,100066.25
2023-04-16T07:17:19.145Z,100059.88
2023-04-16T07:19:47.653Z,100063.28
2023-04-16T07:22:15.827Z,100064.84
2023-04-16T07:24:45.521Z,100071.22
2023-04-16T07:27:13.592Z,100073.75
2023-04-16T07:29:42.103Z,100065.69
2023-04-16T07:32:10.566Z,100068.25
2023-04-16T07:34:38.957Z,100066.56
2023-04-16T07:37:07.041Z,100068.13
2023-04-16T07:39:35.197Z,100065.44
2023-04-16T07:42:04.766Z,100070.69
2023-04-16T07:44:32.800Z,100066.16
2023-04-16T07:47:01.899Z,100066.16
2023-04-16T07:49:31.060Z,100057.94
2023-04-16T07:51:59.171Z,100069.53
2023-04-16T07:54:29.016Z,100065.88
2023-04-16T07:56:57.266Z,100066.75
2023-04-16T07:59:27.079Z,100063.94
2023-04-16T08:01:55.719Z,100071.03
2023-04-16T08:04:26.287Z,100065.66
2023-04-16T08:06:54.888Z,100067.34
2023-04-16T08:09:24.498Z,100065.50
2023-04-16T08:11:52.704Z,100065.38
2023-04-16T08:14:21.562Z,100065.22
2023-04-16T08:16:51.139Z,100062.38
2023-04-16T08:19:19.160Z,100062.38
2023-04-16T08:21:48.046Z,100062.25
2023-04-16T08:24:16.111Z,100063.97
2023-04-16T08:26:44.203Z,100070.22
2023-04-16T08:29:12.506Z,100065.69
2023-04-16T08:31:41.371Z,100066.78
2023-04-16T08:34:12.366Z,100074.63
2023-04-16T08:36:41.554Z,100083.25
2023-04-16T08:39:10.169Z,100078.72
2023-04-16T08:41:42.131Z,100073.34
2023-04-16T08:44:14.235Z,100078.72
2023-04-16T08:46:44.321Z,100087.50
2023-04-16T08:49:17.999Z,100087.25
2023-04-16T08:51:53.133Z,100084.44
2023-04-16T08:54:32.567Z,100081.72
2023-04-16T08:57:01.416Z,100093.06
2023-04-16T08:59:30.557Z,100083.28
2023-04-16T09:02:00.048Z,100086.69
2023-04-16T09:04:30.655Z,100093.78
2023-04-16T09:07:00.631Z,100094.38
2023-04-16T09:09:30.065Z,100093.53
2023-04-16T09:11:58.355Z,100095.25
2023-04-16T09:14:26.598Z,100100.34
2023-04-16T09:16:55.735Z,100094.94
2023-04-16T09:19:24.556Z,100100.91
2023-04-16T09:21:54.088Z,100102.50
2023-04-16T09:24:23.089Z,100113.97
2023-04-16T09:26:52.738Z,100106.59
2023-04-16T09:29:36.175Z,100105.47
2023-04-16T09:32:04.673Z,100108.91
2023-04-16T09:34:34.460Z,100104.78
2023-04-16T09:37:19.445Z,100110.78
2023-04-16T09:39:55.097Z,100110.38
2023-04-16T09:42:25.179Z,100112.69
2023-04-16T09:44:54.156Z,100115.25
2023-04-16T09:47:22.928Z,100115.81
2023-04-16T09:49:51.029Z,100118.38
2023-04-16T09:52:23.827Z,100116.94
2023-04-16T09:54:53.721Z,100115.09
2023-04-16T09:57:22.928Z,100111.22
2023-04-16T09:59:54.045Z,100114.59
2023-04-16T10:02:23.283Z,100113.44
2023-04-16T10:04:52.416Z,100100.78
2023-04-16T10:07:22.149Z,100100.56
2023-04-16T10:09:52.484Z,100103.63
2023-04-16T10:12:21.487Z,100108.38
2023-04-16T10:14:50.481Z,100102.63
2023-04-16T10:17:18.944Z,100098.56
2023-04-16T10:19:47.613Z,100094.63
2023-04-16T10:22:16.534Z,100097.13
2023-04-16T10:24:48.216Z,100094.34
2023-04-16T10:27:16.621Z,100089.69
2023-04-16T10:29:46.056Z,100089.78
2023-04-16T10:32:15.232Z,100084.88
2023-04-16T10:34:43.615Z,100085.44
2023-04-16T10:37:11.682Z,100087.81
2023-04-16T10:39:39.915Z,100081.41
2023-04-16T10:42:11.184Z,100080.56
2023-04-16T10:44:43.499Z,100075.13
2023-04-16T10:47:14.231Z,100066.16
2023-04-16T10:49:43.626Z,100066.16
2023-04-16T10:52:13.162Z,100062.63
2023-04-16T10:54:41.657Z,100067.88
2023-04-16T10:57:17.928Z,100057.72
2023-04-16T10:59:46.611Z,100063.00
2023-04-16T11:02:16.605Z,100061.84
2023-04-16T11:04:46.112Z,100062.50
2023-04-16T11:07:18.012Z,100056.09
2023-04-16T11:09:57.735Z,100053.38
2023-04-16T11:12:33.781Z,100057.31
2023-04-16T11:15:03.464Z,100053.78
2023-04-16T11:17:34.415Z,100051.75
2023-04-16T11:20:02.837Z,100053.44
2023-04-16T11:22:31.727Z,100058.69
2023-04-16T11:24:59.719Z,100050.56
2023-04-16T11:27:31.120Z,100051.41
2023-04-16T11:30:00.795Z,100050.41
2023-04-16T11:32:29.280Z,100055.97
2023-04-16T11:34:57.601Z,100043.63
2023-04-16T11:37:34.116Z,100044.31
2023-04-16T11:40:04.893Z,100045.00
2023-04-16T11:42:37.179Z,100047.34
2023-04-16T11:45:06.225Z,100050.06
2023-04-16T11:47:43.228Z,100044.47
2023-04-16T11:50:22.431Z,100050.06
2023-04-16T11:52:51.658Z,100048.19
2023-04-16T11:55:19.945Z,100044.63
2023-04-16T11:57:49.479Z,100044.31
2023-04-16T12:00:24.621Z,100041.59
2023-04-16T12:02:54.941Z,100040.59
2023-04-16T12:05:32.048Z,100036.88
2023-04-16T12:08:01.378Z,100038.72
2023-04-16T12:10:29.926Z,100035.16
2023-04-16T12:13:12.994Z,100028.91
2023-04-16T12:15:48.558Z,100029.75
2023-04-16T12:18:17.288Z,100026.88
2023-04-16T12:20:46.587Z,100032.47
2023-04-16T12:23:24.578Z,100020.63
2023-04-16T12:25:52.928Z,100029.75
2023-04-16T12:28:30.397Z,100025.19
2023-04-16T12:30:58.762Z,100025.34
2023-04-16T12:33:27.072Z,100024.34
2023-04-16T12:35:55.470Z,100024.66
2023-04-16T12:38:25.560Z,100014.84
2023-04-16T12:40:56.945Z,100012.97
2023-04-16T12:43:25.600Z,100007.72
2023-04-16T12:45:55.256Z,100012.13
2023-04-16T12:48:23.548Z,100005.03
2023-04-16T12:50:55.528Z,100006.88
2023-04-16T12:53:26.114Z,99993.34
2023-04-16T12:55:54.268Z,99992.63
2023-04-16T12:58:25.607Z,100001.47
2023-04-16T13:00:55.550Z,100003.34
2023-04-16T13:03:23.931Z,99991.66
2023-04-16T13:05:52.151Z,99999.63
2023-04-16T13:08:20.305Z,99992.16
2023-04-16T13:10:48.728Z,99993.19
2023-04-16T13:13:16.766Z,99994.72
2023-04-16T13:15:45.184Z,99993.88
2023-04-16T13:18:14.604Z,99985.75
2023-04-16T13:20:42.738Z,99992.16
2023-04-16T13:23:11.294Z,99987.59
2023-04-16T13:25:39.433Z,99983.19
2023-04-16T13:28:07.591Z,99981.50
2023-04-16T13:30:36.011Z,99981.50
2023-04-16T13:33:07.688Z,99979.66
2023-04-16T13:35:37.349Z,99967.28
2023-04-16T13:38:06.097Z,99974.38
2023-04-16T13:40:34.210Z,99975.25
2023-04-16T13:43:02.304Z,99972.53
2023-04-16T13:45:30.576Z,99967.13
2023-04-16T13:47:59.081Z,99966.41
2023-04-16T13:50:27.539Z,99966.41
2023-04-16T13:52:57.076Z,99971.81
2023-04-16T13:55:25.271Z,99966.56
2023-04-16T13:57:53.418Z,99961.16
2023-04-16T14:00:21.913Z,99965.72
2023-04-16T14:02:50.276Z,99956.75
2023-04-16T14:05:19.478Z,99951.66
2023-04-16T14:07:47.554Z,99957.94
2023-04-16T14:10:17.164Z,99958.94
2023-04-16T14:12:45.737Z,99954.38
2023-04-16T14:15:15.582Z,99958.94
2023-04-16T14:17:46.927Z,99960.97
2023-04-16T14:20:15.745Z,99957.53
2023-04-16T14:22:44.937Z,99959.28
2023-04-16T14:25:13.116Z,99962.97
2023-04-16T14:27:42.635Z,99953.31
2023-04-16T14:30:11.310Z,99951.44
2023-04-16T14:32:39.416Z,99948.75
2023-04-16T14:35:08.334Z,99947.22
2023-04-16T14:37:38.402Z,99950.75
2023-04-16T14:40:08.959Z,99944.00
2023-04-16T14:42:37.870Z,99942.97
2023-04-16T14:45:08.820Z,99940.28
2023-04-16T14:47:46.026Z,99946.69
2023-04-16T14:50:17.086Z,99948.56
2023-04-16T14:52:45.426Z,99949.41
2023-04-16T14:55:13.717Z,99942.25
2023-04-16T14:57:41.974Z,99941.41
2023-04-16T15:00:13.631Z,99943.28
2023-04-16T15:02:42.198Z,99940.56
2023-04-16T15:05:11.394Z,99939.72
2023-04-16T15:07:39.545Z,99940.56
2023-04-16T15:10:08.787Z,99937.19
2023-04-16T15:12:36.996Z,99930.91
2023-04-16T15:15:05.982Z,99934.47
2023-04-16T15:17:35.751Z,99938.19
2023-04-16T15:20:06.857Z,99932.09
2023-04-16T15:22:35.384Z,99940.56
2023-04-16T15:25:04.189Z,99940.28
2023-04-16T15:27:32.585Z,99936.38
2023-04-16T15:30:01.060Z,99934.53
2023-04-16T15:32:29.682Z,99943.88
2023-04-16T15:34:59.867Z,99938.28
2023-04-16T15:37:27.962Z,99943.03
2023-04-16T15:39:56.654Z,99939.59
2023-04-16T15:42:38.954Z,99942.16
2023-04-16T15:45:07.697Z,99941.31
2023-04-16T15:47:37.213Z,99950.97
2023-04-16T15:50:10.237Z,99948.13
2023-04-16T15:52:39.474Z,99942.88
2023-04-16T15:55:07.887Z,99944.56
2023-04-16T15:57:36.202Z,99940.84
2023-04-16T16:00:13.459Z,99947.09
2023-04-16T16:02:42.178Z,99945.56
2023-04-16T16:05:13.458Z,99941.00
2023-04-16T16:07:41.969Z,99940.31
2023-04-16T16:10:12.928Z,99950.13
2023-04-16T16:12:41.674Z,99948.56
2023-04-16T16:15:11.146Z,99945.19
2023-04-16T16:17:41.799Z,99947.72
2023-04-16T16:20:10.952Z,99950.75
2023-04-16T16:22:41.836Z,99947.06
2023-04-16T16:25:11.163Z,99946.38
2023-04-16T16:27:40.605Z,99944.66
2023-04-16T16:30:09.972Z,99950.09
2023-04-16T16:32:40.894Z,99951.09
2023-04-16T16:35:09.828Z,99952.97
2023-04-16T16:37:38.183Z,99945.97
2023-04-16T16:40:08.811Z,99947.69
2023-04-16T16:42:37.107Z,99945.97
2023-04-16T16:45:06.197Z,99956.81
2023-04-16T16:47:34.572Z,99947.84
2023-04-16T16:50:03.246Z,99955.28
2023-04-16T16:52:32.129Z,99951.72
2023-04-16T16:55:00.277Z,99952.91
2023-04-16T16:57:29.711Z,99961.88
2023-04-16T16:59:57.990Z,99952.06
2023-04-16T17:02:26.238Z,99959.50
2023-04-16T17:04:54.952Z,99968.59
2023-04-16T17:07:23.037Z,99961.47
2023-04-16T17:09:51.430Z,99969.75
2023-04-16T17:12:19.788Z,99964.50
2023-04-16T17:14:52.336Z,99959.59
2023-04-16T17:17:20.580Z,99966.84
2023-04-16T17:19:48.817Z,99960.72
2023-04-16T17:22:16.870Z,99963.44
2023-04-16T17:24:44.918Z,99968.00
2023-04-16T17:27:13.065Z,99971.88
2023-04-16T17:29:41.158Z,99970.34
2023-04-16T17:32:10.882Z,99972.22
2023-04-16T17:34:38.976Z,99978.63
2023-04-16T17:37:07.040Z,99983.31
2023-04-16T17:39:35.124Z,99989.75
2023-04-16T17:42:04.050Z,99986.34
2023-04-16T17:44:32.174Z,99981.94
2023-04-16T17:47:00.413Z,99984.81
2023-04-16T17:49:29.960Z,99984.97
2023-04-16T17:51:58.401Z,99984.25
2023-04-16T17:54:27.033Z,99996.94
2023-04-16T17:56:55.493Z,99994.41
2023-04-16T17:59:23.676Z,99994.53
2023-04-16T18:01:51.973Z,100010.91
2023-04-16T18:04:20.698Z,100004.81
2023-04-16T18:06:50.137Z,100006.81
2023-04-16T18:09:19.488Z,100015.94
2023-04-16T18:11:47.577Z,100017.94
2023-04-16T18:14:19.896Z,100021.66
2023-04-16T18:16:48.680Z,100023.84
2023-04-16T18:19:17.051Z,100024.69
2023-04-16T18:21:45.232Z,100026.81
2023-04-16T18:24:15.481Z,100028.00
2023-04-16T18:26:46.660Z,100021.91
2023-04-16T18:29:15.570Z,100015.78
2023-04-16T18:31:47.412Z,100009.66
2023-04-16T18:34:15.968Z,100006.97
2023-04-16T18:36:44.197Z,100008.13
2023-04-16T18:39:12.551Z,99993.91
2023-04-16T18:41:42.860Z,100007.59
2023-04-16T18:44:11.057Z,100004.91
2023-04-16T18:46:39.122Z,100010.47
2023-04-16T18:49:08.804Z,100004.34
2023-04-16T18:51:37.440Z,99995.69
2023-04-16T18:54:05.648Z,100001.94
2023-04-16T18:56:33.704Z,100011.06
2023-04-16T18:59:03.470Z,99991.59
2023-04-16T19:01:31.627Z,100002.41
2023-04-16T19:04:00.373Z,99995.44
2023-04-16T19:06:29.245Z,99992.91
2023-04-16T19:08:57.634Z,99997.47
2023-04-16T19:11:25.866Z,99994.91
2023-04-16T19:13:54.271Z,99991.50
2023-04-16T19:16:23.864Z,100003.50
2023-04-16T19:18:51.946Z,100007.03
2023-04-16T19:21:21.405Z,100009.88
2023-04-16T19:23:50.782Z,100005.47
2023-04-16T19:26:18.930Z,99997.53
2023-04-16T19:28:47.152Z,100004.94
2023-04-16T19:31:15.661Z,100001.53
2023-04-16T19:33:45.153Z,99991.75
2023-04-16T19:36:13.264Z,100003.56
2023-04-16T19:38:41.433Z,100002.81
2023-04-16T19:41:10.100Z,99992.03
2023-04-16T19:43:38.815Z,99993.03
2023-04-16T19:46:07.333Z,99997.03
2023-04-16T19:48:35.425Z,100002.28
2023-04-16T19:51:05.579Z,100002.44
2023-04-16T19:53:34.385Z,99999.06
2023-04-16T19:56:02.630Z,99992.94
2023-04-16T19:58:30.866Z,99993.94
2023-04-16T20:01:02.603Z,99992.22
2023-04-16T20:03:30.927Z,100002.19
2023-04-16T20:05:59.231Z,100000.50
2023-04-16T20:08:29.065Z,99987.16
2023-04-16T20:10:57.280Z,99991.22
2023-04-16T20:13:26.042Z,99988.94
2023-04-16T20:15:54.535Z,99981.94
2023-04-16T20:18:28.043Z,99990.81
2023-04-16T20:20:59.629Z,99987.03
2023-04-16T20:23:29.040Z,99987.97
2023-04-16T20:26:00.219Z,99998.72
2023-04-16T20:28:28.494Z,99986.97
2023-04-16T20:30:56.764Z,99984.88
2023-04-16T20:33:25.343Z,99994.78
2023-04-16T20:35:53.404Z,99986.44
2023-04-16T20:38:23.898Z,99988.19
2023-04-16T20:41:06.236Z,99989.94
2023-04-16T20:43:38.539Z,99989.00
2023-04-16T20:46:07.108Z,99982.63
2023-04-16T20:48:35.594Z,99973.69
2023-04-16T20:51:05.405Z,99980.31
2023-04-16T20:53:34.000Z,99978.69
2023-04-16T20:56:03.499Z,99983.44
2023-04-16T20:58:31.634Z,99982.13
2023-04-16T21:00:59.787Z,99973.13
2023-04-16T21:03:28.179Z,99980.09
2023-04-16T21:05:56.807Z,99981.78
2023-04-16T21:08:25.479Z,99974.00
2023-04-16T21:10:54.922Z,99975.69
2023-04-16T21:13:26.965Z,99977.72
2023-04-16T21:15:55.351Z,99983.44
2023-04-16T21:18:25.978Z,99975.31
2023-04-16T21:20:54.266Z,99971.06
2023-04-16T21:23:22.333Z,99971.22
2023-04-16T21:25:50.608Z,99968.00
2023-04-16T21:28:18.762Z,99956.34
2023-04-16T21:30:52.122Z,99964.75
2023-04-16T21:33:20.375Z,99951.53
2023-04-16T21:35:52.347Z,99959.00
2023-04-16T21:38:20.577Z,99963.69
2023-04-16T21:40:50.772Z,99965.72
2023-04-16T21:43:18.886Z,99965.19
2023-04-16T21:45:53.292Z,99966.38
2023-04-16T21:48:21.967Z,99967.53
2023-04-16T21:50:56.082Z,99958.88
2023-04-16T21:53:24.167Z,99946.53
2023-04-16T21:55:52.385Z,99947.69
2023-04-16T21:58:20.533Z,99948.84
2023-04-16T22:00:50.186Z,99958.16
2023-04-16T22:03:18.627Z,99953.91
2023-04-16T22:05:47.200Z,99956.91
2023-04-16T22:08:24.124Z,99955.38
2023-04-16T22:10:53.212Z,99955.72
2023-04-16T22:13:21.637Z,99954.19
2023-04-16T22:15:51.092Z,99952.63
2023-04-16T22:18:19.294Z,99946.69
2023-04-16T22:20:50.776Z,99940.75
2023-04-16T22:23:18.952Z,99944.59
2023-04-16T22:25:46.959Z,99942.06
2023-04-16T22:28:16.606Z,99934.25
2023-04-16T22:30:44.696Z,99942.69
2023-04-16T22:33:14.219Z,99940.28
2023-04-16T22:35:42.486Z,99937.88
2023-04-16T22:38:10.621Z,99924.81
2023-04-16T22:40:38.761Z,99931.06
2023-04-16T22:43:07.330Z,99937.81
2023-04-16T22:45:35.805Z,99934.25
2023-04-16T22:48:03.966Z,99935.44
2023-04-16T22:50:33.580Z,99934.72
2023-04-16T22:53:01.765Z,99934.88
2023-04-16T22:55:30.127Z,99918.13
2023-04-16T22:57:58.229Z,99921.84
2023-04-16T23:00:27.308Z,99929.25
2023-04-16T23:02:56.076Z,99925.16
2023-04-16T23:05:24.238Z,99922.78
2023-04-16T23:07:54.132Z,99923.63
2023-04-16T23:10:22.333Z,99919.38
2023-04-16T23:12:50.839Z,99921.38
2023-04-16T23:15:19.043Z,99915.28
2023-04-16T23:17:47.342Z,99913.56
2023-04-16T23:20:15.730Z,99910.34
2023-04-16T23:22:44.055Z,99906.97
2023-04-16T23:25:13.523Z,99904.38
2023-04-16T23:27:41.711Z,99913.50
2023-04-16T23:30:10.586Z,99909.25
2023-04-16T23:32:40.169Z,99899.63
2023-04-16T23:35:09.561Z,99897.91
2023-04-16T23:37:37.749Z,99899.91
2023-04-16T23:40:07.271Z,99898.53
2023-04-16T23:42:36.950Z,99889.72
2023-04-16T23:45:05.643Z,99890.75
2023-04-16T23:47:33.716Z,99886.34
2023-04-16T23:50:02.071Z,99889.16
2023-04-16T23:52:30.316Z,99883.94
2023-04-16T23:54:58.461Z,99882.22
2023-04-16T23:57:26.785Z,99879.84
2023-04-16T23:59:58.809Z,99891.66
